createdAt,value
2023-02-17T00:00:53.696Z,9.98
2023-02-17T00:03:20.141Z,9.99
2023-02-17T00:05:47.511Z,9.97
2023-02-17T00:08:14.716Z,9.98
2023-02-17T00:10:41.104Z,9.98
2023-02-17T00:13:07.471Z,9.96
2023-02-17T00:15:33.864Z,9.98
2023-02-17T00:18:00.244Z,9.91
2023-02-17T00:20:28.736Z,9.89
2023-02-17T00:22:55.112Z,9.89
2023-02-17T00:25:21.516Z,9.89
2023-02-17T00:27:47.909Z,9.87
2023-02-17T00:30:14.447Z,9.82
2023-02-17T00:32:40.844Z,9.81
2023-02-17T00:35:08.184Z,9.77
2023-02-17T00:37:35.626Z,9.75
2023-02-17T00:40:02.031Z,9.81
2023-02-17T00:42:28.422Z,9.83
2023-02-17T00:44:58.623Z,9.84
2023-02-17T00:47:25.036Z,9.79
2023-02-17T00:49:51.482Z,9.74
2023-02-17T00:52:18.392Z,9.73
2023-02-17T00:54:44.763Z,9.65
2023-02-17T00:57:11.268Z,9.69
2023-02-17T00:59:37.672Z,9.72
2023-02-17T01:02:07.777Z,9.80
2023-02-17T01:04:36.082Z,9.73
2023-02-17T01:07:02.532Z,9.83
2023-02-17T01:09:28.919Z,9.77
2023-02-17T01:11:55.299Z,9.77
2023-02-17T01:14:21.779Z,9.78
2023-02-17T01:16:49.024Z,9.73
2023-02-17T01:19:18.921Z,9.80
2023-02-17T01:21:47.781Z,9.79
2023-02-17T01:24:15.628Z,9.83
2023-02-17T01:26:42.104Z,9.77
2023-02-17T01:29:08.752Z,9.73
2023-02-17T01:31:35.558Z,9.77
2023-02-17T01:34:04.189Z,9.76
2023-02-17T01:36:31.334Z,9.75
2023-02-17T01:38:58.965Z,9.73
2023-02-17T01:41:27.846Z,9.74
2023-02-17T01:44:18.191Z,9.73
2023-02-17T01:46:47.418Z,9.76
2023-02-17T01:49:31.232Z,9.78
2023-02-17T01:52:06.727Z,9.79
2023-02-17T01:54:48.954Z,9.80
2023-02-17T01:57:21.125Z,9.82
2023-02-17T01:59:48.393Z,9.82
2023-02-17T02:02:15.933Z,9.81
2023-02-17T02:04:46.768Z,9.79
2023-02-17T02:07:26.727Z,9.81
2023-02-17T02:09:56.224Z,9.77
2023-02-17T02:12:31.530Z,9.71
2023-02-17T02:15:11.305Z,9.66
2023-02-17T02:17:59.521Z,9.64
2023-02-17T02:20:52.194Z,9.66
2023-02-17T02:23:41.869Z,9.67
2023-02-17T02:26:27.028Z,9.68
2023-02-17T02:29:12.767Z,9.56
2023-02-17T02:32:11.188Z,9.47
2023-02-17T02:35:19.114Z,9.43
2023-02-17T02:37:56.132Z,9.43
2023-02-17T02:40:29.117Z,9.46
2023-02-17T02:42:56.975Z,9.43
2023-02-17T02:45:23.705Z,9.47
2023-02-17T02:47:52.902Z,9.46
2023-02-17T02:50:53.028Z,9.52
2023-02-17T02:53:56.485Z,9.51
2023-02-17T02:56:36.644Z,9.53
2023-02-17T02:59:21.749Z,9.55
2023-02-17T03:02:05.906Z,9.47
2023-02-17T03:04:41.695Z,9.49
2023-02-17T03:07:21.289Z,9.49
2023-02-17T03:09:51.384Z,9.49
2023-02-17T03:12:19.222Z,9.37
2023-02-17T03:14:48.154Z,9.40
2023-02-17T03:17:16.112Z,9.44
2023-02-17T03:19:45.466Z,9.40
2023-02-17T03:22:23.571Z,9.36
2023-02-17T03:24:50.734Z,9.35
2023-02-17T03:27:17.736Z,9.39
2023-02-17T03:29:44.174Z,9.35
2023-02-17T03:32:11.209Z,9.29
2023-02-17T03:34:37.716Z,9.30
2023-02-17T03:37:04.506Z,9.32
2023-02-17T03:39:31.579Z,9.27
2023-02-17T03:41:58.054Z,9.25
2023-02-17T03:44:24.439Z,9.29
2023-02-17T03:46:50.874Z,9.32
2023-02-17T03:49:17.297Z,9.31
2023-02-17T03:51:43.735Z,9.28
2023-02-17T03:54:10.399Z,9.30
2023-02-17T03:56:37.248Z,9.33
2023-02-17T03:59:04.042Z,9.33
2023-02-17T04:01:30.550Z,9.18
2023-02-17T04:03:57.029Z,9.24
2023-02-17T04:06:23.503Z,9.20
2023-02-17T04:08:49.895Z,9.26
2023-02-17T04:11:16.296Z,9.31
2023-02-17T04:13:42.732Z,9.24
2023-02-17T04:16:10.497Z,9.27
2023-02-17T04:18:37.822Z,9.22
2023-02-17T04:21:04.842Z,9.24
2023-02-17T04:23:31.454Z,9.28
2023-02-17T04:25:57.972Z,9.26
2023-02-17T04:28:24.444Z,9.33
2023-02-17T04:30:51.546Z,9.34
2023-02-17T04:33:18.742Z,9.38
2023-02-17T04:35:45.497Z,9.39
2023-02-17T04:38:12.141Z,9.45
2023-02-17T04:40:39.872Z,9.38
2023-02-17T04:43:06.440Z,9.35
2023-02-17T04:45:34.198Z,9.38
2023-02-17T04:48:00.645Z,9.39
2023-02-17T04:50:27.008Z,9.41
2023-02-17T04:52:53.404Z,9.47
2023-02-17T04:55:20.010Z,9.49
2023-02-17T04:57:46.588Z,9.47
2023-02-17T05:00:13.418Z,9.46
2023-02-17T05:02:39.934Z,9.48
2023-02-17T05:05:06.703Z,9.45
2023-02-17T05:07:33.242Z,9.50
2023-02-17T05:09:59.709Z,9.55
2023-02-17T05:12:26.130Z,9.48
2023-02-17T05:14:52.492Z,9.52
2023-02-17T05:17:18.927Z,9.47
2023-02-17T05:19:45.356Z,9.50
2023-02-17T05:22:11.767Z,9.47
2023-02-17T05:24:39.005Z,9.45
2023-02-17T05:27:05.747Z,9.48
2023-02-17T05:29:32.168Z,9.47
2023-02-17T05:31:58.604Z,9.44
2023-02-17T05:34:25.085Z,9.46
2023-02-17T05:36:51.504Z,9.45
2023-02-17T05:39:17.925Z,9.51
2023-02-17T05:41:44.326Z,9.52
2023-02-17T05:44:10.774Z,9.51
2023-02-17T05:46:37.960Z,9.51
2023-02-17T05:49:04.403Z,9.53
2023-02-17T05:51:30.913Z,9.59
2023-02-17T05:53:57.329Z,9.54
2023-02-17T05:56:23.782Z,9.61
2023-02-17T05:58:50.239Z,9.60
2023-02-17T06:01:16.663Z,9.57
2023-02-17T06:03:43.050Z,9.58
2023-02-17T06:06:09.564Z,9.64
2023-02-17T06:08:36.728Z,9.59
2023-02-17T06:11:03.212Z,9.55
2023-02-17T06:13:29.779Z,9.58
2023-02-17T06:15:56.320Z,9.57
2023-02-17T06:18:22.849Z,9.57
2023-02-17T06:20:49.616Z,9.61
2023-02-17T06:23:16.353Z,9.52
2023-02-17T06:25:43.288Z,9.59
2023-02-17T06:28:09.774Z,9.62
2023-02-17T06:30:36.143Z,9.63
2023-02-17T06:33:02.588Z,9.62
2023-02-17T06:35:28.984Z,9.60
2023-02-17T06:37:55.376Z,9.58
2023-02-17T06:40:21.995Z,9.66
2023-02-17T06:42:48.399Z,9.70
2023-02-17T06:45:14.818Z,9.70
2023-02-17T06:47:41.252Z,9.64
2023-02-17T06:50:08.542Z,9.61
2023-02-17T06:52:34.984Z,9.67
2023-02-17T06:55:01.694Z,9.75
2023-02-17T06:57:28.071Z,9.74
2023-02-17T06:59:54.487Z,9.73
2023-02-17T07:02:21.020Z,9.70
2023-02-17T07:04:47.462Z,9.73
2023-02-17T07:07:14.268Z,9.67
2023-02-17T07:09:41.160Z,9.66
2023-02-17T07:12:07.679Z,9.74
2023-02-17T07:14:35.263Z,9.71
2023-02-17T07:17:02.433Z,9.68
2023-02-17T07:19:28.930Z,9.76
2023-02-17T07:21:55.369Z,9.69
2023-02-17T07:24:21.806Z,9.75
2023-02-17T07:26:48.608Z,9.77
2023-02-17T07:29:15.058Z,9.74
2023-02-17T07:31:41.488Z,9.75
2023-02-17T07:34:07.990Z,9.77
2023-02-17T07:36:34.797Z,9.79
2023-02-17T07:39:02.381Z,9.74
2023-02-17T07:41:28.810Z,9.73
2023-02-17T07:43:57.062Z,9.72
2023-02-17T07:46:24.067Z,9.81
2023-02-17T07:48:50.612Z,9.78
2023-02-17T07:51:21.062Z,9.82
2023-02-17T07:53:48.560Z,9.78
2023-02-17T07:56:16.167Z,9.77
2023-02-17T07:58:44.618Z,9.79
2023-02-17T08:01:15.473Z,9.84
2023-02-17T08:03:42.937Z,9.82
2023-02-17T08:06:11.294Z,9.84
2023-02-17T08:08:56.362Z,9.91
2023-02-17T08:11:41.875Z,9.87
2023-02-17T08:14:10.706Z,9.77
2023-02-17T08:16:38.027Z,9.79
2023-02-17T08:19:06.099Z,9.78
2023-02-17T08:21:34.691Z,9.77
2023-02-17T08:24:01.087Z,9.78
2023-02-17T08:26:27.680Z,9.82
2023-02-17T08:28:54.121Z,9.84
2023-02-17T08:31:33.008Z,9.82
2023-02-17T08:34:05.871Z,9.79
2023-02-17T08:36:33.030Z,9.76
2023-02-17T08:39:00.595Z,9.75
2023-02-17T08:41:33.914Z,9.82
2023-02-17T08:44:06.255Z,9.91
2023-02-17T08:46:34.757Z,9.87
2023-02-17T08:49:01.383Z,9.82
2023-02-17T08:51:27.839Z,9.87
2023-02-17T08:53:56.701Z,9.91
2023-02-17T08:56:24.621Z,9.99
2023-02-17T08:58:51.601Z,9.98
2023-02-17T09:01:19.116Z,9.95
2023-02-17T09:03:47.259Z,9.96
2023-02-17T09:06:15.170Z,10.00
2023-02-17T09:08:43.023Z,10.05
2023-02-17T09:11:10.312Z,10.06
2023-02-17T09:13:37.227Z,10.04
2023-02-17T09:16:04.716Z,10.05
2023-02-17T09:18:31.385Z,10.10
2023-02-17T09:20:58.451Z,10.17
2023-02-17T09:23:25.125Z,10.25
2023-02-17T09:26:10.720Z,10.27
2023-02-17T09:28:38.764Z,10.32
2023-02-17T09:31:13.776Z,10.27
2023-02-17T09:33:41.251Z,10.25
2023-02-17T09:36:10.840Z,10.25
2023-02-17T09:38:39.332Z,10.33
2023-02-17T09:41:27.006Z,10.37
2023-02-17T09:43:55.037Z,10.36
2023-02-17T09:46:35.531Z,10.33
2023-02-17T09:49:15.637Z,10.31
2023-02-17T09:52:05.597Z,10.35
2023-02-17T09:54:41.575Z,10.37
2023-02-17T09:57:15.577Z,10.44
2023-02-17T09:59:47.102Z,10.45
2023-02-17T10:02:27.445Z,10.39
2023-02-17T10:04:57.364Z,10.44
2023-02-17T10:07:35.253Z,10.48
2023-02-17T10:10:10.644Z,10.50
2023-02-17T10:12:49.207Z,10.56
2023-02-17T10:15:20.859Z,10.47
2023-02-17T10:18:12.247Z,10.50
2023-02-17T10:20:49.830Z,10.56
2023-02-17T10:23:24.402Z,10.63
2023-02-17T10:26:09.936Z,10.74
2023-02-17T10:28:51.554Z,10.71
2023-02-17T10:31:41.389Z,10.71
2023-02-17T10:34:33.586Z,10.96
2023-02-17T10:37:11.474Z,11.11
2023-02-17T10:39:45.773Z,11.08
2023-02-17T10:42:16.473Z,10.88
2023-02-17T10:44:44.141Z,10.96
2023-02-17T10:47:11.285Z,10.81
2023-02-17T10:49:45.809Z,10.84
2023-02-17T10:52:22.177Z,10.82
2023-02-17T10:54:56.187Z,10.98
2023-02-17T10:57:26.915Z,11.13
2023-02-17T10:59:53.703Z,11.25
2023-02-17T11:02:24.905Z,11.12
2023-02-17T11:04:55.004Z,10.96
2023-02-17T11:07:32.894Z,10.97
2023-02-17T11:10:02.723Z,11.09
2023-02-17T11:12:49.729Z,11.02
2023-02-17T11:15:23.275Z,10.89
2023-02-17T11:17:50.846Z,10.82
2023-02-17T11:20:17.344Z,10.72
2023-02-17T11:22:47.430Z,10.60
2023-02-17T11:25:34.360Z,10.53
2023-02-17T11:28:06.958Z,10.56
2023-02-17T11:30:35.478Z,10.52
2023-02-17T11:33:16.010Z,10.68
2023-02-17T11:35:42.311Z,10.67
2023-02-17T11:38:23.265Z,10.78
2023-02-17T11:40:54.347Z,10.71
2023-02-17T11:43:21.142Z,10.62
2023-02-17T11:46:13.938Z,10.49
2023-02-17T11:49:03.134Z,10.55
2023-02-17T11:51:53.479Z,10.46
2023-02-17T11:54:31.552Z,10.51
2023-02-17T11:57:31.083Z,10.44
2023-02-17T12:00:22.707Z,10.41
2023-02-17T12:03:04.577Z,10.38
2023-02-17T12:05:37.159Z,10.43
2023-02-17T12:08:48.626Z,10.46
2023-02-17T12:11:24.107Z,10.47
2023-02-17T12:14:18.003Z,10.48
2023-02-17T12:16:51.870Z,10.56
2023-02-17T12:19:46.903Z,10.50
2023-02-17T12:22:19.379Z,10.53
2023-02-17T12:25:13.512Z,10.56
2023-02-17T12:28:07.211Z,10.48
2023-02-17T12:30:55.615Z,10.57
2023-02-17T12:33:34.252Z,10.51
2023-02-17T12:36:09.704Z,10.56
2023-02-17T12:38:49.565Z,10.67
2023-02-17T12:41:37.271Z,10.66
2023-02-17T12:44:13.002Z,10.66
2023-02-17T12:46:43.353Z,10.66
2023-02-17T12:49:16.657Z,10.62
2023-02-17T12:51:54.236Z,10.64
2023-02-17T12:54:24.456Z,10.79
2023-02-17T12:57:13.582Z,10.86
2023-02-17T12:59:43.574Z,10.77
2023-02-17T13:02:14.806Z,10.72
2023-02-17T13:04:43.971Z,10.80
2023-02-17T13:07:37.406Z,10.67
2023-02-17T13:10:06.495Z,10.70
2023-02-17T13:12:40.274Z,10.69
2023-02-17T13:15:26.761Z,10.72
2023-02-17T13:18:03.050Z,10.68
2023-02-17T13:20:57.173Z,10.73
2023-02-17T13:23:30.347Z,10.75
2023-02-17T13:26:11.696Z,10.77
2023-02-17T13:28:40.513Z,10.68
2023-02-17T13:31:19.132Z,10.70
2023-02-17T13:33:49.475Z,10.75
2023-02-17T13:36:29.303Z,10.79
2023-02-17T13:39:05.392Z,10.76
2023-02-17T13:41:46.985Z,10.77
2023-02-17T13:44:21.203Z,11.07
2023-02-17T13:46:48.215Z,11.10
2023-02-17T13:49:22.577Z,10.99
2023-02-17T13:51:49.074Z,11.05
2023-02-17T13:54:21.141Z,11.00
2023-02-17T13:56:52.091Z,10.92
2023-02-17T13:59:25.823Z,10.86
2023-02-17T14:01:54.757Z,10.87
2023-02-17T14:04:30.386Z,11.01
2023-02-17T14:07:03.629Z,11.03
2023-02-17T14:09:32.571Z,10.95
2023-02-17T14:12:02.674Z,10.89
2023-02-17T14:14:36.030Z,11.00
2023-02-17T14:17:09.065Z,11.02
2023-02-17T14:19:47.338Z,11.00
2023-02-17T14:22:31.850Z,10.97
2023-02-17T14:25:01.072Z,10.96
2023-02-17T14:27:27.484Z,10.95
2023-02-17T14:29:53.897Z,10.94
2023-02-17T14:32:40.037Z,10.98
2023-02-17T14:35:12.184Z,10.98
2023-02-17T14:37:39.860Z,11.04
2023-02-17T14:40:24.265Z,11.00
2023-02-17T14:42:51.238Z,11.05
2023-02-17T14:45:18.883Z,11.04
2023-02-17T14:47:46.171Z,11.04
2023-02-17T14:50:13.188Z,11.12
2023-02-17T14:52:44.663Z,11.12
2023-02-17T14:55:23.224Z,11.15
2023-02-17T14:57:49.647Z,11.11
2023-02-17T15:00:16.303Z,11.06
2023-02-17T15:02:42.767Z,11.11
2023-02-17T15:05:09.289Z,11.06
2023-02-17T15:07:36.132Z,11.13
2023-02-17T15:10:10.277Z,11.13
2023-02-17T15:12:36.672Z,11.13
2023-02-17T15:15:03.244Z,11.14
2023-02-17T15:17:29.629Z,11.17
2023-02-17T15:19:56.056Z,11.18
2023-02-17T15:22:24.002Z,11.17
2023-02-17T15:24:50.403Z,11.27
2023-02-17T15:27:19.311Z,11.26
2023-02-17T15:29:45.762Z,11.25
2023-02-17T15:32:18.736Z,11.29
2023-02-17T15:34:45.815Z,11.11
2023-02-17T15:37:12.236Z,11.06
2023-02-17T15:39:38.688Z,11.07
2023-02-17T15:42:11.490Z,11.14
2023-02-17T15:44:44.990Z,11.21
2023-02-17T15:47:19.889Z,11.20
2023-02-17T15:49:46.591Z,11.15
2023-02-17T15:52:14.513Z,11.24
2023-02-17T15:54:42.592Z,11.23
2023-02-17T15:57:20.900Z,11.20
2023-02-17T15:59:47.705Z,11.12
2023-02-17T16:02:32.175Z,11.10
2023-02-17T16:04:58.545Z,11.08
2023-02-17T16:07:24.975Z,11.07
2023-02-17T16:09:51.457Z,11.04
2023-02-17T16:12:26.647Z,11.10
2023-02-17T16:14:53.902Z,11.07
2023-02-17T16:17:20.403Z,11.10
2023-02-17T16:19:47.145Z,11.15
2023-02-17T16:22:14.341Z,11.16
2023-02-17T16:24:40.785Z,11.10
2023-02-17T16:27:09.504Z,11.10
2023-02-17T16:29:36.277Z,11.10
2023-02-17T16:32:03.067Z,11.06
2023-02-17T16:34:32.311Z,11.03
2023-02-17T16:37:02.647Z,11.06
2023-02-17T16:39:29.262Z,11.03
2023-02-17T16:41:55.714Z,11.03
2023-02-17T16:44:23.290Z,11.09
2023-02-17T16:46:52.431Z,11.13
2023-02-17T16:49:24.516Z,11.07
2023-02-17T16:51:52.306Z,11.09
2023-02-17T16:54:18.864Z,11.08
2023-02-17T16:56:48.445Z,11.08
2023-02-17T16:59:18.068Z,11.03
2023-02-17T17:01:45.764Z,11.02
2023-02-17T17:04:12.983Z,11.01
2023-02-17T17:06:45.207Z,11.02
2023-02-17T17:09:16.579Z,11.02
2023-02-17T17:11:43.187Z,11.01
2023-02-17T17:14:09.609Z,10.98
2023-02-17T17:16:36.763Z,10.96
2023-02-17T17:19:03.915Z,10.89
2023-02-17T17:21:30.925Z,10.90
2023-02-17T17:23:57.340Z,10.81
2023-02-17T17:26:31.079Z,10.80
2023-02-17T17:28:58.155Z,10.84
2023-02-17T17:31:25.935Z,10.81
2023-02-17T17:33:53.539Z,10.77
2023-02-17T17:36:34.043Z,10.78
2023-02-17T17:39:01.905Z,10.77
2023-02-17T17:41:29.837Z,10.74
2023-02-17T17:43:57.367Z,10.79
2023-02-17T17:46:32.106Z,10.82
2023-02-17T17:49:00.098Z,10.82
2023-02-17T17:51:28.772Z,10.79
2023-02-17T17:53:56.137Z,10.75
2023-02-17T17:56:35.022Z,10.67
2023-02-17T17:59:03.264Z,10.67
2023-02-17T18:01:29.733Z,10.66
2023-02-17T18:03:57.939Z,10.68
2023-02-17T18:06:37.555Z,10.66
2023-02-17T18:09:06.525Z,10.66
2023-02-17T18:11:34.677Z,10.64
2023-02-17T18:14:03.572Z,10.67
2023-02-17T18:16:31.863Z,10.69
2023-02-17T18:19:01.028Z,10.70
2023-02-17T18:21:27.521Z,10.64
2023-02-17T18:23:53.939Z,10.64
2023-02-17T18:26:20.354Z,10.63
2023-02-17T18:28:46.850Z,10.68
2023-02-17T18:31:15.617Z,10.72
2023-02-17T18:33:42.621Z,10.72
2023-02-17T18:36:16.073Z,10.74
2023-02-17T18:38:44.106Z,10.72
2023-02-17T18:41:21.973Z,10.68
2023-02-17T18:43:48.452Z,10.68
2023-02-17T18:46:14.965Z,10.72
2023-02-17T18:48:41.562Z,10.72
2023-02-17T18:51:10.770Z,10.70
2023-02-17T18:53:37.354Z,10.68
2023-02-17T18:56:09.568Z,10.68
2023-02-17T18:58:36.188Z,10.72
2023-02-17T19:01:02.622Z,10.74
2023-02-17T19:03:29.563Z,10.70
2023-02-17T19:05:56.020Z,10.70
2023-02-17T19:08:22.489Z,10.69
2023-02-17T19:10:50.992Z,10.72
2023-02-17T19:13:17.427Z,10.73
2023-02-17T19:15:43.861Z,10.72
2023-02-17T19:18:10.320Z,10.71
2023-02-17T19:20:36.810Z,10.71
2023-02-17T19:23:03.264Z,10.74
2023-02-17T19:25:29.666Z,10.75
2023-02-17T19:27:56.044Z,10.75
2023-02-17T19:30:22.591Z,10.73
2023-02-17T19:32:49.057Z,10.72
2023-02-17T19:35:15.526Z,10.68
2023-02-17T19:37:41.984Z,10.65
2023-02-17T19:40:08.914Z,10.58
2023-02-17T19:42:35.627Z,10.61
2023-02-17T19:45:02.027Z,10.64
2023-02-17T19:47:30.813Z,10.66
2023-02-17T19:49:57.243Z,10.68
2023-02-17T19:52:23.608Z,10.69
2023-02-17T19:54:50.466Z,10.71
2023-02-17T19:57:18.204Z,10.73
2023-02-17T19:59:45.234Z,10.77
2023-02-17T20:02:16.032Z,10.74
2023-02-17T20:04:42.890Z,10.75
2023-02-17T20:07:09.745Z,10.76
2023-02-17T20:09:37.255Z,10.69
2023-02-17T20:12:03.853Z,10.59
2023-02-17T20:14:30.227Z,10.62
2023-02-17T20:16:56.669Z,10.67
2023-02-17T20:19:23.215Z,10.71
2023-02-17T20:21:49.679Z,10.73
2023-02-17T20:24:16.196Z,10.75
2023-02-17T20:26:50.843Z,10.76
2023-02-17T20:29:17.310Z,10.78
2023-02-17T20:31:43.848Z,10.79
2023-02-17T20:34:25.759Z,10.80
2023-02-17T20:36:52.164Z,10.72
2023-02-17T20:39:19.739Z,10.71
2023-02-17T20:41:46.430Z,10.68
2023-02-17T20:44:13.077Z,10.69
2023-02-17T20:46:41.930Z,10.71
2023-02-17T20:49:09.085Z,10.74
2023-02-17T20:51:35.472Z,10.72
2023-02-17T20:54:01.872Z,10.72
2023-02-17T20:56:35.092Z,10.73
2023-02-17T20:59:02.024Z,10.75
2023-02-17T21:01:28.910Z,10.71
2023-02-17T21:03:55.319Z,10.70
2023-02-17T21:06:25.124Z,10.64
2023-02-17T21:08:55.487Z,10.63
2023-02-17T21:11:22.448Z,10.63
2023-02-17T21:13:49.231Z,10.64
2023-02-17T21:16:19.241Z,10.64
2023-02-17T21:18:47.158Z,10.63
2023-02-17T21:21:15.415Z,10.64
2023-02-17T21:23:42.231Z,10.64
2023-02-17T21:26:11.063Z,10.61
2023-02-17T21:28:37.511Z,10.63
2023-02-17T21:31:04.764Z,10.64
2023-02-17T21:33:31.359Z,10.61
2023-02-17T21:35:57.957Z,10.61
2023-02-17T21:38:24.544Z,10.64
2023-02-17T21:40:51.064Z,10.63
2023-02-17T21:43:38.081Z,10.58
2023-02-17T21:46:11.124Z,10.57
2023-02-17T21:48:39.581Z,10.57
2023-02-17T21:51:11.087Z,10.56
2023-02-17T21:53:37.963Z,10.55
2023-02-17T21:56:06.689Z,10.57
2023-02-17T21:58:34.667Z,10.59
2023-02-17T22:01:01.276Z,10.57
2023-02-17T22:03:27.941Z,10.51
2023-02-17T22:05:54.330Z,10.52
2023-02-17T22:08:20.792Z,10.49
2023-02-17T22:10:47.245Z,10.50
2023-02-17T22:13:13.659Z,10.55
2023-02-17T22:15:40.106Z,10.57
2023-02-17T22:18:06.552Z,10.56
2023-02-17T22:20:33.464Z,10.57
2023-02-17T22:22:59.829Z,10.57
2023-02-17T22:25:26.260Z,10.53
2023-02-17T22:27:52.730Z,10.56
2023-02-17T22:30:19.280Z,10.57
2023-02-17T22:32:45.714Z,10.56
2023-02-17T22:35:13.978Z,10.55
2023-02-17T22:37:40.371Z,10.53
2023-02-17T22:40:07.809Z,10.50
2023-02-17T22:42:34.273Z,10.53
2023-02-17T22:45:00.679Z,10.54
2023-02-17T22:47:27.105Z,10.52
2023-02-17T22:49:53.541Z,10.45
2023-02-17T22:52:19.969Z,10.47
2023-02-17T22:54:46.501Z,10.49
2023-02-17T22:57:12.948Z,10.51
2023-02-17T22:59:39.309Z,10.52
2023-02-17T23:02:05.746Z,10.54
2023-02-17T23:04:32.136Z,10.51
2023-02-17T23:06:59.005Z,10.54
2023-02-17T23:09:25.456Z,10.54
2023-02-17T23:11:54.910Z,10.53
2023-02-17T23:14:41.815Z,10.55
2023-02-17T23:17:10.993Z,10.56
2023-02-17T23:19:38.921Z,10.52
2023-02-17T23:22:11.678Z,10.53
2023-02-17T23:24:38.175Z,10.54
2023-02-17T23:27:04.886Z,10.53
2023-02-17T23:29:31.955Z,10.54
2023-02-17T23:31:59.047Z,10.55
2023-02-17T23:34:26.207Z,10.56
2023-02-17T23:36:52.609Z,10.57
2023-02-17T23:39:19.020Z,10.56
2023-02-17T23:41:45.811Z,10.54
2023-02-17T23:44:14.067Z,10.52
2023-02-17T23:46:42.727Z,10.51
2023-02-17T23:49:13.762Z,10.49
2023-02-17T23:51:40.169Z,10.50
2023-02-17T23:54:06.543Z,10.50
2023-02-17T23:56:34.954Z,10.51
2023-02-17T23:59:01.894Z,10.48
